Time;durP1;ratioP1;P1;durP2;ratioP2;P2;SDS_P1;SDS_P2;PMS_P1;PMS_P2;Temp;Humidity;BMP_temperature;BMP_pressure;BME280_temperature;BME280_humidity;BME280_pressure;Samples;Min_cycle;Max_cycle;Signal;HPM_P1;HPM_P2
2023/10/04 00:00:20;;;;;;;10.00;2.30;;;;;;;14.79;100.00;102339.69;4995604;28;20478;-47
2023/10/04 00:02:50;;;;;;;6.63;2.63;;;;;;;14.79;100.00;102347.66;4997014;28;20116;-49
2023/10/04 00:05:17;;;;;;;7.10;2.25;;;;;;;14.62;100.00;102316.28;5012358;28;20125;-52
2023/10/04 00:07:44;;;;;;;6.85;2.40;;;;;;;14.67;100.00;102337.34;4978966;28;20041;-48
2023/10/04 00:10:09;;;;;;;8.57;2.85;;;;;;;14.27;100.00;102265.94;5012613;28;20033;-46
2023/10/04 00:12:35;;;;;;;7.55;2.30;;;;;;;14.61;100.00;102333.09;5012733;28;20116;-52
2023/10/04 00:15:01;;;;;;;7.07;2.92;;;;;;;14.54;100.00;102335.00;5011680;28;20473;-48
2023/10/04 00:17:27;;;;;;;5.53;2.22;;;;;;;14.48;100.00;102339.59;5012377;28;20049;-48
2023/10/04 00:19:52;;;;;;;5.63;2.90;;;;;;;14.09;100.00;102273.44;5011912;28;20046;-52
2023/10/04 00:22:19;;;;;;;14.13;2.72;;;;;;;14.49;100.00;102343.97;5011935;28;20033;-49
2023/10/04 00:24:44;;;;;;;10.00;2.75;;;;;;;14.54;100.00;102350.03;5011834;28;20042;-49
2023/10/04 00:27:10;;;;;;;9.50;2.33;;;;;;;14.55;100.00;102325.28;4993524;28;20028;-50
2023/10/04 00:29:36;;;;;;;6.15;2.35;;;;;;;14.72;100.00;102343.41;5003614;28;20104;-50
2023/10/04 00:32:03;;;;;;;8.15;2.80;;;;;;;14.77;100.00;102345.00;5005255;28;20125;-47
2023/10/04 00:34:29;;;;;;;6.88;2.35;;;;;;;14.33;100.00;102263.16;4992232;28;20034;-50
2023/10/04 00:36:56;;;;;;;6.95;2.50;;;;;;;14.60;100.00;102332.19;4992219;28;20413;-52
2023/10/04 00:39:21;;;;;;;7.00;1.92;;;;;;;14.72;100.00;102346.03;5010675;28;20036;-51
2023/10/04 00:41:47;;;;;;;5.93;2.25;;;;;;;14.68;100.00;102355.00;5011621;28;20034;-49
2023/10/04 00:44:12;;;;;;;6.20;2.28;;;;;;;14.62;100.00;102338.31;4993984;28;20030;-52
2023/10/04 00:46:41;;;;;;;10.38;2.38;;;;;;;14.54;100.00;102334.13;5010351;28;20034;-48
2023/10/04 00:49:08;;;;;;;11.18;2.35;;;;;;;14.60;100.00;102352.53;5011265;28;20172;-50
2023/10/04 00:51:36;;;;;;;9.70;2.38;;;;;;;14.54;100.00;102355.31;4994187;28;20113;-49
2023/10/04 00:54:07;;;;;;;6.85;2.55;;;;;;;14.12;100.00;102290.13;5011636;28;20127;-50
2023/10/04 00:56:35;;;;;;;7.90;2.53;;;;;;;14.42;100.00;102372.41;4994488;28;20543;-49
2023/10/04 00:59:03;;;;;;;5.85;1.83;;;;;;;14.40;100.00;102357.44;5011413;28;20026;-49
2023/10/04 01:01:32;;;;;;;8.23;2.25;;;;;;;14.48;100.00;102363.44;5011556;28;20389;-49
2023/10/04 01:04:01;;;;;;;4.82;1.98;;;;;;;14.35;100.00;102343.44;5010769;28;20077;-48
2023/10/04 01:06:26;;;;;;;7.68;2.47;;;;;;;14.40;100.00;102360.97;5011416;28;20485;-52
2023/10/04 01:08:53;;;;;;;7.18;2.10;;;;;;;14.45;100.00;102366.16;4977718;28;20033;-49
2023/10/04 01:11:19;;;;;;;6.28;2.25;;;;;;;14.43;100.00;102375.91;5011406;28;20037;-50
2023/10/04 01:13:45;;;;;;;8.77;2.40;;;;;;;14.08;100.00;102311.38;5011482;28;20030;-46
2023/10/04 01:16:11;;;;;;;5.88;2.20;;;;;;;14.44;100.00;102357.34;5011049;28;20531;-46
2023/10/04 01:19:30;;;;;;;11.63;3.05;;;;;;;14.11;100.00;102294.56;5088230;27;21000;-51
2023/10/04 01:21:56;;;;;;;9.15;2.50;;;;;;;14.51;100.00;102363.34;5079268;28;20086;-47
2023/10/04 01:24:21;;;;;;;7.38;2.42;;;;;;;14.43;100.00;102341.47;5069494;28;20043;-50
2023/10/04 01:26:46;;;;;;;5.60;1.80;;;;;;;14.60;100.00;102363.13;5069193;28;20036;-48
2023/10/04 01:29:15;;;;;;;9.05;2.25;;;;;;;14.55;100.00;102365.91;5068734;28;20120;-51
2023/10/04 01:31:41;;;;;;;9.30;2.72;;;;;;;14.18;100.00;102306.75;5068441;28;20063;-50
2023/10/04 01:34:06;;;;;;;6.68;2.40;;;;;;;14.48;100.00;102359.00;5074037;28;20028;-48
2023/10/04 01:36:32;;;;;;;7.03;2.10;;;;;;;14.04;100.00;102283.22;5086418;28;20028;-51
2023/10/04 01:38:58;;;;;;;7.60;2.20;;;;;;;14.16;100.00;102310.31;5079849;28;20045;-47
2023/10/04 01:41:25;;;;;;;7.80;2.53;;;;;;;14.08;100.00;102299.91;5089432;28;20035;-51
2023/10/04 01:43:53;;;;;;;6.70;1.88;;;;;;;14.34;100.00;102354.94;5089210;28;20119;-52
2023/10/04 01:46:19;;;;;;;6.05;2.00;;;;;;;14.33;100.00;102363.81;5079653;28;20044;-50
2023/10/04 01:48:44;;;;;;;9.27;2.72;;;;;;;14.32;100.00;102362.03;5067648;28;20116;-48
2023/10/04 01:51:10;;;;;;;7.47;2.88;;;;;;;14.29;100.00;102362.97;5066867;28;20040;-50
2023/10/04 01:53:35;;;;;;;6.97;1.85;;;;;;;14.07;100.00;102317.59;5071006;28;20110;-52
2023/10/04 01:56:03;;;;;;;8.60;2.28;;;;;;;14.01;100.00;102314.19;5066068;28;20519;-48
2023/10/04 01:58:28;;;;;;;10.07;3.25;;;;;;;13.95;100.00;102315.22;5067424;28;20048;-47
2023/10/04 02:00:54;;;;;;;11.55;2.97;;;;;;;13.86;100.00;102302.22;5067258;28;20028;-48
2023/10/04 02:03:20;;;;;;;6.53;2.25;;;;;;;14.09;100.00;102352.84;5067670;28;20474;-48
2023/10/04 02:05:48;;;;;;;7.90;2.00;;;;;;;14.06;100.00;102352.06;5068652;28;20033;-49
2023/10/04 02:08:14;;;;;;;7.40;1.98;;;;;;;14.00;100.00;102347.78;5068610;28;20024;-49
2023/10/04 02:10:41;;;;;;;4.82;2.20;;;;;;;13.97;100.00;102360.19;5076968;28;20040;-48
2023/10/04 02:13:08;;;;;;;7.45;2.63;;;;;;;13.94;100.00;102349.69;5076222;28;20040;-48
2023/10/04 02:15:34;;;;;;;5.00;2.47;;;;;;;13.89;100.00;102360.34;5068434;28;20036;-48
2023/10/04 02:17:59;;;;;;;4.88;1.88;;;;;;;13.89;100.00;102360.34;5067924;28;20099;-51
2023/10/04 02:20:28;;;;;;;7.65;2.50;;;;;;;13.89;100.00;102356.84;5068308;28;20083;-46
2023/10/04 02:22:54;;;;;;;9.30;2.65;;;;;;;13.85;100.00;102350.75;5066799;28;20060;-48
2023/10/04 02:25:20;;;;;;;9.18;2.70;;;;;;;13.90;100.00;102367.41;5066255;28;20581;-49
2023/10/04 02:27:46;;;;;;;7.57;2.03;;;;;;;13.90;100.00;102356.81;5072640;28;20180;-47
2023/10/04 02:30:26;;;;;;;7.38;2.50;;;;;;;13.65;100.00;102302.69;5056662;28;20090;-48
2023/10/04 02:32:52;;;;;;;8.73;3.03;;;;;;;14.07;100.00;102372.31;5037055;28;20065;-47
2023/10/04 02:35:27;;;;;;;8.90;3.25;;;;;;;14.13;100.00;102379.28;5053983;28;20033;-48
2023/10/04 02:37:54;;;;;;;11.50;2.45;;;;;;;14.11;100.00;102376.63;5053758;28;20091;-48
2023/10/04 02:40:22;;;;;;;9.48;2.60;;;;;;;13.65;100.00;102302.69;5053172;28;20029;-46
2023/10/04 02:42:48;;;;;;;6.18;2.22;;;;;;;13.98;100.00;102359.31;5053930;28;20063;-50
2023/10/04 02:45:18;;;;;;;8.55;2.38;;;;;;;13.60;100.00;102307.19;5037052;28;20085;-46
2023/10/04 02:47:48;;;;;;;5.55;2.35;;;;;;;13.59;100.00;102307.22;5052344;28;20079;-53
2023/10/04 02:50:15;;;;;;;5.93;2.30;;;;;;;13.62;100.00;102310.69;5051655;28;20090;-48
2023/10/04 02:52:41;;;;;;;8.70;2.80;;;;;;;13.82;100.00;102374.63;5053783;28;20043;-48
2023/10/04 02:55:06;;;;;;;9.70;3.33;;;;;;;14.00;100.00;102370.72;5053408;28;20392;-48
2023/10/04 02:57:31;;;;;;;8.40;2.55;;;;;;;13.74;100.00;102325.44;5053380;28;20075;-49
2023/10/04 02:59:58;;;;;;;9.65;2.67;;;;;;;14.07;100.00;102390.84;5053845;28;20037;-51
2023/10/04 03:02:23;;;;;;;6.30;2.42;;;;;;;13.62;100.00;102317.75;5057652;28;20037;-46
2023/10/04 03:04:51;;;;;;;10.13;2.72;;;;;;;13.91;100.00;102385.03;5053402;28;20045;-51
2023/10/04 03:07:17;;;;;;;6.18;2.30;;;;;;;13.88;100.00;102382.44;5053182;28;20045;-52
2023/10/04 03:09:43;;;;;;;7.72;3.38;;;;;;;13.91;100.00;102386.81;5052368;28;20040;-48
2023/10/04 03:12:10;;;;;;;7.53;2.55;;;;;;;13.78;100.00;102374.72;5053632;28;20040;-50
2023/10/04 03:14:36;;;;;;;8.52;2.47;;;;;;;13.26;100.00;102299.09;5052161;28;20041;-46
2023/10/04 03:17:02;;;;;;;12.05;3.00;;;;;;;13.38;100.00;102322.66;5050683;28;20051;-52
2023/10/04 03:19:27;;;;;;;10.27;3.20;;;;;;;13.68;100.00;102373.19;5050792;28;20451;-53
2023/10/04 03:21:53;;;;;;;7.80;2.58;;;;;;;13.68;100.00;102373.19;5059314;28;20041;-51
2023/10/04 03:24:18;;;;;;;8.15;2.60;;;;;;;13.71;100.00;102368.72;5053318;28;20041;-47
2023/10/04 03:26:44;;;;;;;8.15;2.90;;;;;;;13.41;100.00;102333.16;5052420;28;20047;-46
2023/10/04 03:29:11;;;;;;;6.60;2.60;;;;;;;13.35;100.00;102316.56;5053064;28;20489;-48
2023/10/04 03:31:38;;;;;;;11.20;2.97;;;;;;;13.11;100.00;102303.81;5053048;28;20116;-46
2023/10/04 03:34:04;;;;;;;7.18;2.70;;;;;;;13.08;100.00;102346.16;5052490;28;20036;-51
2023/10/04 03:36:34;;;;;;;10.55;3.28;;;;;;;12.84;100.00;102311.31;5053908;28;20037;-48
2023/10/04 03:38:59;;;;;;;8.93;2.70;;;;;;;12.75;100.00;102308.88;5053204;28;20036;-49
2023/10/04 03:41:24;;;;;;;7.65;2.67;;;;;;;13.13;100.00;102368.13;5071673;28;20033;-53
2023/10/04 03:43:50;;;;;;;8.68;3.05;;;;;;;13.10;100.00;102373.47;5073651;28;20033;-50
2023/10/04 03:46:18;;;;;;;7.95;2.67;;;;;;;13.15;100.00;102380.41;5073449;28;20024;-49
2023/10/04 03:48:48;;;;;;;8.55;3.00;;;;;;;13.19;100.00;102382.06;5068288;28;20032;-48
2023/10/04 03:51:15;;;;;;;9.82;2.85;;;;;;;12.79;100.00;102309.66;5052410;28;20025;-50
2023/10/04 03:53:43;;;;;;;12.00;2.40;;;;;;;12.86;100.00;102337.75;5069599;28;20119;-47
2023/10/04 03:56:10;;;;;;;9.13;3.25;;;;;;;12.91;100.00;102363.19;5063286;28;20021;-51
2023/10/04 03:58:36;;;;;;;7.30;2.78;;;;;;;12.32;100.00;102274.41;5073210;28;20053;-49
2023/10/04 04:01:02;;;;;;;8.93;2.60;;;;;;;12.64;100.00;102342.50;5071913;28;20463;-49
2023/10/04 04:03:30;;;;;;;9.05;2.85;;;;;;;12.64;100.00;102346.97;5071859;28;20094;-50
2023/10/04 04:05:55;;;;;;;11.45;3.92;;;;;;;12.25;100.00;102274.53;5073122;28;20036;-47
2023/10/04 04:08:21;;;;;;;9.65;2.75;;;;;;;12.58;100.00;102347.06;5066801;28;20036;-47
2023/10/04 04:10:46;;;;;;;10.38;3.28;;;;;;;12.53;100.00;102346.25;5070938;28;20479;-48
2023/10/04 04:13:12;;;;;;;11.07;3.22;;;;;;;12.51;100.00;102342.75;5052922;28;20052;-47
2023/10/04 04:15:39;;;;;;;10.20;3.00;;;;;;;12.47;100.00;102320.81;5051739;28;20074;-47
2023/10/04 04:18:06;;;;;;;7.20;2.70;;;;;;;12.26;100.00;102287.69;5052444;28;20143;-47
2023/10/04 04:20:40;;;;;;;8.05;2.97;;;;;;;12.00;100.00;102250.28;5051665;28;20274;-51
2023/10/04 04:23:06;;;;;;;8.63;2.78;;;;;;;12.38;100.00;102328.88;5052819;28;20060;-49
2023/10/04 04:25:32;;;;;;;9.88;3.28;;;;;;;12.33;100.00;102330.72;5059764;28;20122;-49
2023/10/04 04:27:57;;;;;;;9.60;3.33;;;;;;;12.25;100.00;102335.25;5070034;28;20039;-50
2023/10/04 04:30:28;;;;;;;8.55;3.13;;;;;;;11.84;100.00;102273.44;5052487;28;20029;-49
2023/10/04 04:32:56;;;;;;;8.52;3.33;;;;;;;11.82;100.00;102285.75;5051487;28;20033;-52
2023/10/04 04:35:47;;;;;;;11.52;3.40;;;;;;;12.08;100.00;102340.81;5052818;28;20041;-49
2023/10/04 04:40:50;;;;;;;12.60;3.72;;;;;;;12.08;100.00;102361.03;5052216;28;20128;-49
2023/10/04 04:45:56;;;;;;;10.43;3.15;;;;;;;12.04;100.00;102369.88;5050948;28;20044;-47
2023/10/04 04:49:00;;;;;;;11.27;3.72;;;;;;;11.99;100.00;102367.31;5057389;28;20056;-51
2023/10/04 04:51:25;;;;;;;11.80;4.05;;;;;;;11.53;100.00;102295.78;5048190;28;20599;-47
2023/10/04 04:53:51;;;;;;;10.15;4.30;;;;;;;11.51;100.00;102286.16;5038060;28;20374;-48
2023/10/04 04:56:18;;;;;;;11.15;3.40;;;;;;;11.90;100.00;102356.91;5051128;28;20400;-47
2023/10/04 04:58:48;;;;;;;11.60;3.80;;;;;;;11.88;100.00;102352.53;5049799;28;20044;-50
2023/10/04 05:01:14;;;;;;;8.75;3.42;;;;;;;11.93;100.00;102366.53;5058084;28;20370;-51
2023/10/04 05:03:42;;;;;;;6.63;2.85;;;;;;;11.88;100.00;102352.53;5050688;28;20033;-49
2023/10/04 05:06:09;;;;;;;11.35;3.40;;;;;;;11.81;100.00;102349.09;5051160;28;20040;-48
2023/10/04 05:08:36;;;;;;;12.23;3.20;;;;;;;11.81;100.00;102365.81;5052253;28;20083;-48
2023/10/04 05:11:05;;;;;;;10.07;3.70;;;;;;;11.42;100.00;102304.75;5052243;28;20255;-54
2023/10/04 05:13:31;;;;;;;11.07;3.72;;;;;;;11.35;100.00;102311.88;5030983;28;20036;-48
2023/10/04 05:15:56;;;;;;;10.00;3.15;;;;;;;11.61;100.00;102367.81;5038891;28;20028;-46
2023/10/04 05:18:22;;;;;;;9.10;3.47;;;;;;;11.63;100.00;102375.69;5053635;28;20441;-51
2023/10/04 05:20:53;;;;;;;11.32;3.45;;;;;;;11.57;100.00;102363.44;5054576;28;20064;-50
2023/10/04 05:23:20;;;;;;;13.57;4.43;;;;;;;11.67;100.00;102385.31;5034632;28;20095;-53
2023/10/04 05:25:45;;;;;;;10.00;3.25;;;;;;;11.70;100.00;102380.03;5052089;28;20033;-49
2023/10/04 05:28:13;;;;;;;11.93;3.67;;;;;;;11.55;100.00;102359.09;5050794;28;20395;-49
2023/10/04 05:30:44;;;;;;;11.35;3.35;;;;;;;11.75;100.00;102399.31;5051957;28;20188;-51
2023/10/04 05:33:10;;;;;;;14.97;4.63;;;;;;;11.40;100.00;102325.88;5051940;28;20120;-47
2023/10/04 05:35:36;;;;;;;10.25;3.83;;;;;;;11.61;100.00;102386.25;5070946;28;20348;-51
2023/10/04 05:38:03;;;;;;;9.68;3.60;;;;;;;11.52;100.00;102375.81;5052324;28;20037;-53
2023/10/04 05:40:35;;;;;;;11.10;3.60;;;;;;;11.56;100.00;102392.44;5051881;28;20032;-49
2023/10/04 05:43:02;;;;;;;13.13;4.55;;;;;;;11.48;100.00;102392.56;5050428;28;20094;-51
2023/10/04 05:45:28;;;;;;;9.90;3.80;;;;;;;11.43;100.00;102388.22;5051674;28;20041;-47
2023/10/04 05:47:53;;;;;;;7.70;3.55;;;;;;;11.32;100.00;102377.81;5051346;28;20184;-51
2023/10/04 05:50:22;;;;;;;9.88;3.90;;;;;;;11.42;100.00;102402.28;5057416;28;20044;-47
2023/10/04 05:52:49;;;;;;;11.38;4.43;;;;;;;11.42;100.00;102394.38;5061276;28;20423;-49
2023/10/04 05:55:16;;;;;;;9.23;3.70;;;;;;;10.89;100.00;102311.50;5049435;28;20029;-48
2023/10/04 05:57:50;;;;;;;13.00;4.25;;;;;;;11.02;100.00;102344.75;5031692;28;20041;-49
2023/10/04 06:00:33;;;;;;;14.13;4.05;;;;;;;11.32;100.00;102393.63;5038282;28;20365;-48
2023/10/04 06:03:04;;;;;;;7.47;3.33;;;;;;;11.09;100.00;102354.31;5051161;28;20029;-50
2023/10/04 06:05:31;;;;;;;14.30;4.40;;;;;;;11.06;100.00;102354.34;5052640;28;20060;-48
2023/10/04 06:07:57;;;;;;;13.05;3.60;;;;;;;11.35;100.00;102405.91;5061726;28;20119;-52
2023/10/04 06:10:24;;;;;;;13.88;4.28;;;;;;;11.30;100.00;102390.13;5052088;28;20064;-54
2023/10/04 06:12:51;;;;;;;11.32;3.97;;;;;;;11.39;100.00;102411.09;5052350;28;20469;-52
2023/10/04 06:15:17;;;;;;;13.93;5.00;;;;;;;11.01;100.00;102337.72;5054839;28;20044;-50
2023/10/04 06:17:44;;;;;;;8.88;4.13;;;;;;;11.21;100.00;102358.59;5053249;28;20127;-49
2023/10/04 06:20:25;;;;;;;17.27;4.28;;;;;;;11.13;100.00;102334.97;5053302;28;20458;-49
2023/10/04 06:22:59;;;;;;;9.70;3.60;;;;;;;11.38;100.00;102368.97;5054638;28;20475;-48
2023/10/04 06:25:26;;;;;;;13.63;4.10;;;;;;;11.22;100.00;102326.94;5064037;28;20059;-50
2023/10/04 06:27:53;;;;;;;11.38;4.53;;;;;;;11.65;100.00;102401.13;5062605;28;20110;-53
2023/10/04 06:30:23;;;;;;;16.08;4.22;;;;;;;11.33;100.00;102340.00;5053400;28;20375;-54
2023/10/04 06:32:55;;;;;;;11.18;4.25;;;;;;;11.76;100.00;102412.47;5073161;28;20074;-49
2023/10/04 06:35:23;;;;;;;12.68;4.75;;;;;;;11.79;100.00;102416.84;5055390;28;20086;-51
2023/10/04 06:37:49;;;;;;;9.77;4.50;;;;;;;11.47;100.00;102339.84;5053029;28;20090;-49
2023/10/04 06:40:19;;;;;;;10.00;4.47;;;;;;;11.92;100.00;102414.91;5056710;28;20086;-52
2023/10/04 06:42:48;;;;;;;9.77;4.35;;;;;;;11.50;100.00;102322.19;5074445;28;20490;-47
2023/10/04 06:45:15;;;;;;;10.98;4.45;;;;;;;11.88;100.00;102390.31;5058834;28;20037;-49
2023/10/04 06:47:43;;;;;;;8.90;3.90;;;;;;;12.12;100.00;102397.03;5052412;28;20041;-52
2023/10/04 06:50:09;;;;;;;11.18;4.13;;;;;;;12.32;100.00;102410.81;5052911;28;20029;-51
2023/10/04 06:52:35;;;;;;;9.95;4.00;;;;;;;11.94;100.00;102342.75;5053126;28;20067;-50
2023/10/04 06:55:02;;;;;;;11.15;4.13;;;;;;;11.99;100.00;102343.56;5052827;28;20472;-55
2023/10/04 06:57:27;;;;;;;16.33;4.20;;;;;;;12.64;100.00;102420.94;5058052;28;20029;-53
2023/10/04 06:59:53;;;;;;;14.05;4.18;;;;;;;12.47;100.00;102363.06;5072752;28;20032;-52
2023/10/04 07:02:19;;;;;;;12.05;4.15;;;;;;;12.65;100.00;102360.13;5053661;28;20069;-48
2023/10/04 07:04:44;;;;;;;12.90;4.53;;;;;;;13.18;100.00;102433.22;5052206;28;20077;-48
2023/10/04 07:07:10;;;;;;;10.60;4.18;;;;;;;13.44;100.00;102427.47;5054090;28;20060;-47
2023/10/04 07:09:35;;;;;;;16.10;5.70;;;;;;;13.67;100.00;102434.94;5052671;28;20040;-50
2023/10/04 07:12:04;;;;;;;12.30;4.78;;;;;;;13.83;100.00;102431.97;5050486;28;20032;-48
2023/10/04 07:14:29;;;;;;;13.30;4.40;;;;;;;13.92;100.00;102433.56;5051803;28;20037;-49
2023/10/04 07:16:54;;;;;;;15.43;4.38;;;;;;;13.90;100.00;102433.56;5053040;28;20033;-48
2023/10/04 07:19:20;;;;;;;12.35;4.75;;;;;;;13.85;100.00;102418.69;5053361;28;20049;-50
2023/10/04 07:21:45;;;;;;;9.65;4.03;;;;;;;13.91;100.00;102437.09;5052367;28;20033;-47
2023/10/04 07:24:10;;;;;;;11.93;3.95;;;;;;;13.85;100.00;102408.09;5053382;28;20519;-46
2023/10/04 07:26:36;;;;;;;10.55;4.53;;;;;;;13.68;100.00;102370.53;5053523;28;20051;-53
2023/10/04 07:29:02;;;;;;;9.90;4.15;;;;;;;14.04;100.00;102412.09;5052294;28;20079;-48
2023/10/04 07:31:28;;;;;;;14.77;4.60;;;;;;;14.29;100.00;102444.22;5072981;28;20036;-49
2023/10/04 07:33:53;;;;;;;15.38;4.70;;;;;;;14.34;100.00;102440.59;5073106;28;20036;-50
2023/10/04 07:36:19;;;;;;;11.38;4.40;;;;;;;14.46;100.00;102447.38;5058349;28;20037;-53
2023/10/04 07:38:45;;;;;;;14.18;4.45;;;;;;;14.18;100.00;102380.03;5053088;28;20037;-49
2023/10/04 07:41:11;;;;;;;11.38;4.30;;;;;;;14.67;100.00;102454.84;5056640;28;20059;-49
2023/10/04 07:43:37;;;;;;;13.45;4.32;;;;;;;14.44;100.00;102383.84;5071797;28;20028;-50
2023/10/04 07:46:03;;;;;;;14.77;4.93;;;;;;;14.98;100.00;102466.44;5063363;28;20442;-49
2023/10/04 07:48:29;;;;;;;8.50;4.75;;;;;;;15.14;100.00;102458.97;5053039;28;20432;-50
2023/10/04 07:50:54;;;;;;;11.02;4.30;;;;;;;14.91;100.00;102411.84;5052003;28;20029;-49
2023/10/04 07:53:21;;;;;;;9.88;4.40;;;;;;;15.30;100.00;102455.00;5052966;28;20464;-47
2023/10/04 07:55:49;;;;;;;16.60;4.43;;;;;;;15.52;100.00;102473.91;5051023;28;20098;-51
2023/10/04 07:58:14;;;;;;;13.98;4.07;;;;;;;15.59;100.00;102491.41;5052611;28;20036;-52
2023/10/04 08:00:41;;;;;;;12.93;5.25;;;;;;;15.59;100.00;102500.25;5038946;28;20349;-50
2023/10/04 08:03:08;;;;;;;9.82;4.32;;;;;;;15.59;100.00;102486.09;5032856;28;20040;-49
2023/10/04 08:05:34;;;;;;;10.93;4.20;;;;;;;15.70;100.00;102487.53;5031754;28;20484;-52
2023/10/04 08:08:00;;;;;;;15.80;5.50;;;;;;;15.70;100.00;102484.03;5048216;28;20069;-49
2023/10/04 08:10:29;;;;;;;12.90;4.53;;;;;;;15.28;100.00;102406.44;5070153;28;20131;-49
2023/10/04 08:13:02;;;;;;;15.27;4.55;;;;;;;15.87;100.00;102494.19;5071364;28;20038;-49
2023/10/04 08:15:31;;;;;;;10.35;3.97;;;;;;;15.97;100.00;102493.88;5072605;28;20028;-48
2023/10/04 08:17:58;;;;;;;13.00;4.45;;;;;;;16.15;100.00;102496.00;5070933;28;20077;-49
2023/10/04 08:20:28;;;;;;;12.45;4.30;;;;;;;15.91;100.00;102435.63;5069419;28;20044;-50
2023/10/04 08:22:54;;;;;;;11.57;3.88;;;;;;;15.98;100.00;102438.97;5071333;28;20033;-46
2023/10/04 08:25:20;;;;;;;21.70;6.13;;;;;;;16.47;100.00;102488.84;5072506;28;20040;-45
2023/10/04 08:27:46;;;;;;;11.30;4.45;;;;;;;16.51;100.00;102486.06;5048783;28;20040;-48
2023/10/04 08:30:13;;;;;;;7.28;3.58;;;;;;;16.14;100.00;102427.00;5057874;28;20041;-47
2023/10/04 08:32:42;;;;;;;14.25;4.80;;;;;;;16.10;100.00;102435.97;5051350;28;20033;-48
2023/10/04 08:35:21;;;;;;;11.93;4.35;;;;;;;16.14;100.00;102470.34;5052170;28;20525;-48
2023/10/04 08:37:53;;;;;;;11.48;4.88;;;;;;;16.07;100.00;102494.47;5051400;28;20064;-51
2023/10/04 08:40:18;;;;;;;14.88;4.65;;;;;;;15.91;100.00;102494.03;5050913;28;20040;-47
2023/10/04 08:42:46;;;;;;;13.15;4.95;;;;;;;15.94;100.00;102493.94;5051995;28;20395;-47
2023/10/04 08:45:12;;;;;;;11.25;4.55;;;;;;;15.73;100.00;102446.78;5067106;28;20074;-49
2023/10/04 08:47:38;;;;;;;13.75;4.07;;;;;;;15.75;100.00;102437.00;5053892;28;20037;-50
2023/10/04 08:50:06;;;;;;;10.38;4.03;;;;;;;16.04;100.00;102497.22;5055428;28;20394;-50
2023/10/04 08:52:36;;;;;;;16.42;4.32;;;;;;;15.75;100.00;102435.22;5053984;28;20482;-48
2023/10/04 08:55:06;;;;;;;15.15;4.38;;;;;;;16.03;100.00;102479.53;5070623;28;20034;-48
2023/10/04 08:57:35;;;;;;;14.50;4.45;;;;;;;15.86;100.00;102439.31;5070927;28;20040;-50
2023/10/04 09:00:03;;;;;;;14.20;5.30;;;;;;;16.19;100.00;102495.00;5054395;28;20363;-50
2023/10/04 09:02:29;;;;;;;10.73;4.25;;;;;;;16.20;100.00;102488.75;5055078;28;20066;-47
2023/10/04 09:04:55;;;;;;;7.18;3.65;;;;;;;15.96;100.00;102430.19;5064780;28;21175;-48
2023/10/04 09:07:21;;;;;;;9.63;3.88;;;;;;;15.95;100.00;102424.00;5069493;28;20048;-47
2023/10/04 09:09:46;;;;;;;11.43;4.25;;;;;;;16.25;100.00;102448.78;5069690;28;20391;-49
2023/10/04 09:12:12;;;;;;;13.30;5.45;;;;;;;16.25;100.00;102412.47;5069258;28;20067;-46
2023/10/04 09:14:37;;;;;;;8.93;4.28;;;;;;;16.62;100.00;102424.59;5070787;28;20040;-47
2023/10/04 09:17:05;;;;;;;13.98;4.32;;;;;;;16.71;100.00;102411.88;5058586;28;20044;-48
2023/10/04 09:19:30;;;;;;;15.45;5.20;;;;;;;17.21;100.00;102481.16;5053961;28;20079;-47
2023/10/04 09:22:03;;;;;;;10.07;4.10;;;;;;;17.42;100.00;102493.72;5063073;28;20064;-46
2023/10/04 09:24:28;;;;;;;10.90;4.22;;;;;;;17.41;100.00;102505.28;5050270;28;20468;-50
2023/10/04 09:26:55;;;;;;;12.65;3.95;;;;;;;17.30;100.00;102508.31;5054361;28;20059;-47
2023/10/04 09:29:31;;;;;;;14.23;4.35;;;;;;;16.78;100.00;102439.16;5055445;28;20041;-49
2023/10/04 09:31:56;;;;;;;10.00;3.30;;;;;;;16.70;100.00;102428.75;5050523;28;20446;-46
2023/10/04 09:34:25;;;;;;;10.20;3.50;;;;;;;17.12;100.00;102513.38;5033374;28;20041;-48
2023/10/04 09:36:52;;;;;;;11.90;3.80;;;;;;;17.13;100.00;102512.47;5059145;28;20124;-51
2023/10/04 09:39:23;;;;;;;9.98;4.10;;;;;;;16.82;100.00;102456.72;5060461;28;20041;-45
2023/10/04 09:41:50;;;;;;;10.13;3.97;;;;;;;17.19;100.00;102498.97;5075702;28;20087;-47
2023/10/04 09:44:25;;;;;;;9.77;3.70;;;;;;;17.40;100.00;102503.53;5070363;28;20041;-48
2023/10/04 09:46:54;;;;;;;8.60;3.60;;;;;;;17.54;100.00;102492.44;5074413;28;20100;-45
2023/10/04 09:49:21;;;;;;;12.43;3.95;;;;;;;17.29;100.00;102449.81;5073023;28;20078;-46
2023/10/04 09:51:47;;;;;;;10.18;3.25;;;;;;;17.62;100.00;102519.69;5057294;28;20403;-47
2023/10/04 09:54:16;;;;;;;9.48;3.65;;;;;;;17.65;100.00;102519.56;5053729;28;20041;-46
2023/10/04 09:56:42;;;;;;;8.20;3.33;;;;;;;17.75;100.00;102521.84;5055291;28;20036;-49
2023/10/04 09:59:31;;;;;;;10.90;3.40;;;;;;;17.78;100.00;102513.75;5069791;28;20041;-46
2023/10/04 10:01:59;;;;;;;7.38;2.97;;;;;;;17.83;100.00;102521.59;5053697;28;20044;-50
2023/10/04 10:04:29;;;;;;;9.68;3.33;;;;;;;17.48;100.00;102469.56;5055182;28;20047;-52
2023/10/04 10:07:17;;;;;;;8.82;2.70;;;;;;;17.90;100.00;102523.09;5070278;28;20486;-52
2023/10/04 10:09:46;;;;;;;12.20;3.15;;;;;;;18.06;100.00;102529.63;5054654;28;20036;-49
2023/10/04 10:12:12;;;;;;;8.45;3.75;;;;;;;18.19;100.00;102514.03;5054965;28;20570;-49
2023/10/04 10:14:39;;;;;;;7.65;3.15;;;;;;;18.01;100.00;102480.94;5054079;28;20379;-49
2023/10/04 10:17:05;;;;;;;8.65;3.20;;;;;;;18.38;100.00;102531.06;5070420;28;20036;-52
2023/10/04 10:19:30;;;;;;;9.00;3.10;;;;;;;18.36;100.00;102528.44;5053606;28;20049;-49
2023/10/04 10:22:07;;;;;;;9.82;3.70;;;;;;;17.93;100.00;102459.91;5053614;28;20120;-49
2023/10/04 10:24:33;;;;;;;9.60;2.90;;;;;;;18.08;100.00;102505.56;5054841;28;20029;-49
2023/10/04 10:27:08;;;;;;;9.32;3.80;;;;;;;18.10;100.00;102469.94;5053703;28;20115;-51
2023/10/04 10:29:36;;;;;;;11.15;4.05;;;;;;;18.55;100.00;102478.00;5053666;28;20032;-50
2023/10/04 10:32:04;;;;;;;8.98;3.47;;;;;;;18.90;100.00;102528.13;5070020;28;20411;-52
2023/10/04 10:34:30;;;;;;;10.02;3.38;;;;;;;18.76;100.00;102468.25;5069785;28;20037;-48
2023/10/04 10:37:18;;;;;;;9.40;3.78;;;;;;;19.20;100.00;102515.34;5054717;28;20384;-47
2023/10/04 10:39:45;;;;;;;7.82;3.35;;;;;;;18.87;100.00;102416.19;5054666;28;20041;-47
2023/10/04 10:42:12;;;;;;;6.15;3.28;;;;;;;19.63;100.00;102530.44;5053445;28;20025;-51
2023/10/04 10:44:39;;;;;;;7.35;3.40;;;;;;;19.38;100.00;102469.16;5054519;28;20066;-52
2023/10/04 10:47:07;;;;;;;12.68;3.72;;;;;;;19.24;100.00;102468.00;5069687;28;20040;-48
2023/10/04 10:49:50;;;;;;;7.05;3.17;;;;;;;19.20;100.00;102526.03;5055047;28;20029;-51
2023/10/04 10:52:26;;;;;;;7.57;3.15;;;;;;;18.92;100.00;102522.72;5053096;28;20432;-48
2023/10/04 10:54:53;;;;;;;14.98;3.45;;;;;;;18.73;100.00;102511.06;5052964;28;20276;-52
2023/10/04 10:57:20;;;;;;;8.15;3.20;;;;;;;18.82;100.00;102524.91;5053275;28;20033;-50
2023/10/04 10:59:48;;;;;;;8.38;3.17;;;;;;;18.81;100.00;102509.81;5054195;28;20074;-47
2023/10/04 11:02:13;;;;;;;8.32;3.20;;;;;;;18.43;100.00;102451.78;5054079;28;20044;-49
2023/10/04 11:04:39;;;;;;;8.85;3.58;;;;;;;18.57;100.00;102523.25;5054474;28;20120;-50
2023/10/04 11:07:06;;;;;;;7.60;3.33;;;;;;;18.32;100.00;102512.66;5069773;28;20072;-51
2023/10/04 11:09:37;;;;;;;8.23;3.10;;;;;;;17.93;100.00;102485.69;5052980;28;20446;-48
2023/10/04 11:12:05;;;;;;;10.80;3.97;;;;;;;17.91;100.00;102501.75;5054060;28;20120;-49
2023/10/04 11:14:30;;;;;;;8.50;4.45;;;;;;;17.72;100.00;102513.97;5069218;28;20033;-48
2023/10/04 11:16:55;;;;;;;7.55;3.47;;;;;;;17.26;100.00;102455.22;5054076;28;20168;-52
2023/10/04 11:19:21;;;;;;;10.95;3.97;;;;;;;17.30;100.00;102505.66;5053612;28;20057;-50
2023/10/04 11:21:46;;;;;;;11.23;3.75;;;;;;;16.73;100.00;102446.38;5053883;28;20575;-48